sensor_id;sensor_type;location;lat;lon;timestamp;P1;durP1;ratioP1;P2;durP2;ratioP2
58446;SDS011;44240;51.840;7.258;2022-09-28T00:02:02;12.65;;;7.85;;
58446;SDS011;44240;51.840;7.258;2022-09-28T00:04:28;14.68;;;7.43;;
58446;SDS011;44240;51.840;7.258;2022-09-28T00:06:54;11.48;;;7.13;;
58446;SDS011;44240;51.840;7.258;2022-09-28T00:09:19;11.52;;;7.50;;
58446;SDS011;44240;51.840;7.258;2022-09-28T00:11:45;15.77;;;8.45;;
58446;SDS011;44240;51.840;7.258;2022-09-28T00:14:11;12.50;;;7.35;;
58446;SDS011;44240;51.840;7.258;2022-09-28T00:16:38;12.20;;;7.50;;
58446;SDS011;44240;51.840;7.258;2022-09-28T00:19:07;14.05;;;8.23;;
58446;SDS011;44240;51.840;7.258;2022-09-28T00:21:35;16.45;;;8.52;;
58446;SDS011;44240;51.840;7.258;2022-09-28T00:24:03;12.35;;;7.72;;
58446;SDS011;44240;51.840;7.258;2022-09-28T00:31:43;16.77;;;8.40;;
58446;SDS011;44240;51.840;7.258;2022-09-28T00:34:09;13.73;;;7.65;;
58446;SDS011;44240;51.840;7.258;2022-09-28T00:36:35;17.90;;;7.63;;
58446;SDS011;44240;51.840;7.258;2022-09-28T00:39:04;14.55;;;7.80;;
58446;SDS011;44240;51.840;7.258;2022-09-28T00:41:32;14.98;;;8.48;;
58446;SDS011;44240;51.840;7.258;2022-09-28T00:49:32;15.05;;;7.45;;
58446;SDS011;44240;51.840;7.258;2022-09-28T00:52:45;14.25;;;7.57;;
58446;SDS011;44240;51.840;7.258;2022-09-28T00:55:16;11.85;;;7.30;;
58446;SDS011;44240;51.840;7.258;2022-09-28T00:57:47;14.13;;;7.88;;
58446;SDS011;44240;51.840;7.258;2022-09-28T01:00:17;11.48;;;6.85;;
58446;SDS011;44240;51.840;7.258;2022-09-28T01:02:43;14.13;;;7.75;;
58446;SDS011;44240;51.840;7.258;2022-09-28T01:05:09;13.50;;;7.72;;
58446;SDS011;44240;51.840;7.258;2022-09-28T01:07:36;12.55;;;8.10;;
58446;SDS011;44240;51.840;7.258;2022-09-28T01:10:03;17.75;;;7.90;;
58446;SDS011;44240;51.840;7.258;2022-09-28T01:12:29;15.00;;;7.68;;
58446;SDS011;44240;51.840;7.258;2022-09-28T01:14:55;14.32;;;7.30;;
58446;SDS011;44240;51.840;7.258;2022-09-28T01:17:24;16.00;;;8.45;;
58446;SDS011;44240;51.840;7.258;2022-09-28T01:25:41;14.95;;;7.55;;
58446;SDS011;44240;51.840;7.258;2022-09-28T01:28:16;14.55;;;8.20;;
58446;SDS011;44240;51.840;7.258;2022-09-28T01:30:46;15.52;;;8.25;;
58446;SDS011;44240;51.840;7.258;2022-09-28T01:33:22;11.52;;;7.07;;
58446;SDS011;44240;51.840;7.258;2022-09-28T01:35:57;13.45;;;6.95;;
58446;SDS011;44240;51.840;7.258;2022-09-28T01:38:29;15.35;;;9.07;;
58446;SDS011;44240;51.840;7.258;2022-09-28T01:40:58;16.65;;;8.93;;
58446;SDS011;44240;51.840;7.258;2022-09-28T01:43:25;14.25;;;8.25;;
58446;SDS011;44240;51.840;7.258;2022-09-28T01:46:12;13.40;;;7.05;;
58446;SDS011;44240;51.840;7.258;2022-09-28T01:48:55;10.30;;;6.80;;
58446;SDS011;44240;51.840;7.258;2022-09-28T01:51:36;13.38;;;7.55;;
58446;SDS011;44240;51.840;7.258;2022-09-28T01:54:11;13.77;;;8.00;;
58446;SDS011;44240;51.840;7.258;2022-09-28T01:56:43;13.65;;;8.48;;
58446;SDS011;44240;51.840;7.258;2022-09-28T01:59:14;17.25;;;8.35;;
58446;SDS011;44240;51.840;7.258;2022-09-28T02:02:03;16.38;;;8.90;;
58446;SDS011;44240;51.840;7.258;2022-09-28T02:04:46;16.88;;;9.65;;
58446;SDS011;44240;51.840;7.258;2022-09-28T02:07:39;14.23;;;8.02;;
58446;SDS011;44240;51.840;7.258;2022-09-28T02:10:43;13.85;;;7.80;;
58446;SDS011;44240;51.840;7.258;2022-09-28T02:13:33;14.23;;;8.55;;
58446;SDS011;44240;51.840;7.258;2022-09-28T02:16:09;14.32;;;8.27;;
58446;SDS011;44240;51.840;7.258;2022-09-28T02:18:58;13.88;;;8.60;;
58446;SDS011;44240;51.840;7.258;2022-09-28T02:21:31;15.07;;;7.72;;
58446;SDS011;44240;51.840;7.258;2022-09-28T02:24:22;16.90;;;9.00;;
58446;SDS011;44240;51.840;7.258;2022-09-28T02:27:11;17.00;;;8.38;;
58446;SDS011;44240;51.840;7.258;2022-09-28T02:29:41;16.08;;;8.48;;
58446;SDS011;44240;51.840;7.258;2022-09-28T02:32:06;14.70;;;9.02;;
58446;SDS011;44240;51.840;7.258;2022-09-28T02:34:32;17.70;;;8.80;;
58446;SDS011;44240;51.840;7.258;2022-09-28T02:36:59;13.32;;;8.48;;
58446;SDS011;44240;51.840;7.258;2022-09-28T02:39:25;12.73;;;8.80;;
58446;SDS011;44240;51.840;7.258;2022-09-28T02:42:00;15.07;;;8.48;;
58446;SDS011;44240;51.840;7.258;2022-09-28T02:50:49;16.38;;;8.65;;
58446;SDS011;44240;51.840;7.258;2022-09-28T02:58:55;17.58;;;9.18;;
58446;SDS011;44240;51.840;7.258;2022-09-28T03:01:40;13.98;;;9.35;;
58446;SDS011;44240;51.840;7.258;2022-09-28T03:05:08;15.18;;;8.52;;
58446;SDS011;44240;51.840;7.258;2022-09-28T03:07:15;16.10;;;9.20;;
58446;SDS011;44240;51.840;7.258;2022-09-28T03:09:53;13.43;;;8.18;;
58446;SDS011;44240;51.840;7.258;2022-09-28T03:12:27;16.25;;;9.85;;
58446;SDS011;44240;51.840;7.258;2022-09-28T03:17:59;16.63;;;9.25;;
58446;SDS011;44240;51.840;7.258;2022-09-28T03:20:25;14.95;;;9.10;;
58446;SDS011;44240;51.840;7.258;2022-09-28T03:22:51;19.17;;;9.85;;
58446;SDS011;44240;51.840;7.258;2022-09-28T03:25:17;20.92;;;10.35;;
58446;SDS011;44240;51.840;7.258;2022-09-28T03:27:43;19.98;;;11.82;;
58446;SDS011;44240;51.840;7.258;2022-09-28T03:30:09;21.00;;;11.57;;
58446;SDS011;44240;51.840;7.258;2022-09-28T03:32:36;15.60;;;10.00;;
58446;SDS011;44240;51.840;7.258;2022-09-28T03:35:02;20.45;;;10.88;;
58446;SDS011;44240;51.840;7.258;2022-09-28T03:37:28;17.90;;;10.90;;
58446;SDS011;44240;51.840;7.258;2022-09-28T03:39:54;23.75;;;11.13;;
58446;SDS011;44240;51.840;7.258;2022-09-28T03:42:20;23.10;;;12.18;;
58446;SDS011;44240;51.840;7.258;2022-09-28T03:44:45;20.02;;;12.10;;
58446;SDS011;44240;51.840;7.258;2022-09-28T03:47:11;23.98;;;11.80;;
58446;SDS011;44240;51.840;7.258;2022-09-28T03:49:38;21.08;;;11.93;;
58446;SDS011;44240;51.840;7.258;2022-09-28T03:52:03;17.42;;;10.98;;
58446;SDS011;44240;51.840;7.258;2022-09-28T03:54:29;23.15;;;13.07;;
58446;SDS011;44240;51.840;7.258;2022-09-28T03:56:54;23.58;;;12.45;;
58446;SDS011;44240;51.840;7.258;2022-09-28T03:59:20;21.33;;;11.88;;
58446;SDS011;44240;51.840;7.258;2022-09-28T04:01:49;23.52;;;12.57;;
58446;SDS011;44240;51.840;7.258;2022-09-28T04:04:15;22.67;;;11.77;;
58446;SDS011;44240;51.840;7.258;2022-09-28T04:06:40;23.50;;;12.35;;
58446;SDS011;44240;51.840;7.258;2022-09-28T04:09:06;23.17;;;11.98;;
58446;SDS011;44240;51.840;7.258;2022-09-28T04:11:32;24.02;;;12.23;;
58446;SDS011;44240;51.840;7.258;2022-09-28T04:13:58;22.98;;;11.07;;
58446;SDS011;44240;51.840;7.258;2022-09-28T04:16:23;21.45;;;11.45;;
58446;SDS011;44240;51.840;7.258;2022-09-28T04:18:49;21.05;;;12.10;;
58446;SDS011;44240;51.840;7.258;2022-09-28T04:21:16;19.10;;;10.57;;
58446;SDS011;44240;51.840;7.258;2022-09-28T04:23:43;20.15;;;10.85;;
58446;SDS011;44240;51.840;7.258;2022-09-28T04:26:16;18.75;;;11.00;;
58446;SDS011;44240;51.840;7.258;2022-09-28T04:28:46;20.63;;;11.23;;
58446;SDS011;44240;51.840;7.258;2022-09-28T04:31:45;20.38;;;10.13;;
58446;SDS011;44240;51.840;7.258;2022-09-28T04:34:13;19.33;;;10.23;;
58446;SDS011;44240;51.840;7.258;2022-09-28T04:36:41;22.92;;;11.00;;
58446;SDS011;44240;51.840;7.258;2022-09-28T04:39:08;17.25;;;10.10;;
58446;SDS011;44240;51.840;7.258;2022-09-28T04:41:34;21.80;;;12.18;;
58446;SDS011;44240;51.840;7.258;2022-09-28T04:43:59;20.45;;;11.73;;
58446;SDS011;44240;51.840;7.258;2022-09-28T04:46:25;21.08;;;10.68;;
58446;SDS011;44240;51.840;7.258;2022-09-28T04:48:51;21.08;;;11.10;;
58446;SDS011;44240;51.840;7.258;2022-09-28T04:51:16;23.52;;;11.40;;
58446;SDS011;44240;51.840;7.258;2022-09-28T04:53:42;20.50;;;11.10;;
58446;SDS011;44240;51.840;7.258;2022-09-28T04:56:09;24.10;;;11.73;;
58446;SDS011;44240;51.840;7.258;2022-09-28T04:58:36;20.08;;;12.23;;
58446;SDS011;44240;51.840;7.258;2022-09-28T05:01:03;24.42;;;12.60;;
58446;SDS011;44240;51.840;7.258;2022-09-28T05:03:31;23.92;;;12.00;;
58446;SDS011;44240;51.840;7.258;2022-09-28T05:05:56;22.73;;;11.75;;
58446;SDS011;44240;51.840;7.258;2022-09-28T05:08:22;24.30;;;12.50;;
58446;SDS011;44240;51.840;7.258;2022-09-28T05:10:48;23.70;;;11.95;;
58446;SDS011;44240;51.840;7.258;2022-09-28T05:13:20;23.58;;;12.48;;
58446;SDS011;44240;51.840;7.258;2022-09-28T05:15:45;22.95;;;11.82;;
58446;SDS011;44240;51.840;7.258;2022-09-28T05:18:11;23.65;;;12.20;;
58446;SDS011;44240;51.840;7.258;2022-09-28T05:20:40;24.45;;;11.75;;
58446;SDS011;44240;51.840;7.258;2022-09-28T05:23:08;23.73;;;13.52;;
58446;SDS011;44240;51.840;7.258;2022-09-28T05:25:34;25.67;;;12.40;;
58446;SDS011;44240;51.840;7.258;2022-09-28T05:27:59;25.52;;;12.35;;
58446;SDS011;44240;51.840;7.258;2022-09-28T05:30:27;26.92;;;12.38;;
58446;SDS011;44240;51.840;7.258;2022-09-28T05:32:52;20.10;;;10.68;;
58446;SDS011;44240;51.840;7.258;2022-09-28T05:35:18;24.33;;;12.43;;
58446;SDS011;44240;51.840;7.258;2022-09-28T05:37:44;26.85;;;13.13;;
58446;SDS011;44240;51.840;7.258;2022-09-28T05:40:10;22.55;;;11.93;;
58446;SDS011;44240;51.840;7.258;2022-09-28T05:42:36;23.67;;;10.80;;
58446;SDS011;44240;51.840;7.258;2022-09-28T05:45:01;23.15;;;11.55;;
58446;SDS011;44240;51.840;7.258;2022-09-28T05:47:27;25.55;;;12.15;;
58446;SDS011;44240;51.840;7.258;2022-09-28T05:49:53;24.20;;;11.43;;
58446;SDS011;44240;51.840;7.258;2022-09-28T05:52:19;32.35;;;13.32;;
58446;SDS011;44240;51.840;7.258;2022-09-28T05:54:45;26.70;;;12.10;;
58446;SDS011;44240;51.840;7.258;2022-09-28T05:57:11;24.63;;;12.27;;
58446;SDS011;44240;51.840;7.258;2022-09-28T05:59:37;25.55;;;11.95;;
58446;SDS011;44240;51.840;7.258;2022-09-28T06:02:03;24.30;;;12.10;;
58446;SDS011;44240;51.840;7.258;2022-09-28T06:04:29;28.83;;;13.52;;
58446;SDS011;44240;51.840;7.258;2022-09-28T06:06:55;23.90;;;12.48;;
58446;SDS011;44240;51.840;7.258;2022-09-28T06:09:21;29.95;;;12.63;;
58446;SDS011;44240;51.840;7.258;2022-09-28T06:11:48;25.30;;;13.07;;
58446;SDS011;44240;51.840;7.258;2022-09-28T06:14:14;22.75;;;12.25;;
58446;SDS011;44240;51.840;7.258;2022-09-28T06:16:40;20.38;;;11.65;;
58446;SDS011;44240;51.840;7.258;2022-09-28T06:19:09;25.05;;;12.32;;
58446;SDS011;44240;51.840;7.258;2022-09-28T06:21:35;32.22;;;13.98;;
58446;SDS011;44240;51.840;7.258;2022-09-28T06:24:02;26.13;;;14.45;;
58446;SDS011;44240;51.840;7.258;2022-09-28T06:26:27;26.35;;;13.00;;
58446;SDS011;44240;51.840;7.258;2022-09-28T06:28:53;25.27;;;11.68;;
58446;SDS011;44240;51.840;7.258;2022-09-28T06:31:19;27.75;;;13.32;;
58446;SDS011;44240;51.840;7.258;2022-09-28T06:33:48;27.23;;;13.82;;
58446;SDS011;44240;51.840;7.258;2022-09-28T06:36:14;29.92;;;13.27;;
58446;SDS011;44240;51.840;7.258;2022-09-28T06:38:41;32.47;;;14.63;;
58446;SDS011;44240;51.840;7.258;2022-09-28T06:41:07;27.98;;;13.18;;
58446;SDS011;44240;51.840;7.258;2022-09-28T06:43:33;29.42;;;13.68;;
58446;SDS011;44240;51.840;7.258;2022-09-28T06:45:59;29.70;;;14.25;;
58446;SDS011;44240;51.840;7.258;2022-09-28T06:48:25;23.67;;;12.38;;
58446;SDS011;44240;51.840;7.258;2022-09-28T06:50:51;25.42;;;12.60;;
58446;SDS011;44240;51.840;7.258;2022-09-28T06:53:17;26.35;;;13.48;;
58446;SDS011;44240;51.840;7.258;2022-09-28T06:55:44;27.52;;;13.90;;
58446;SDS011;44240;51.840;7.258;2022-09-28T06:58:15;23.65;;;13.27;;
58446;SDS011;44240;51.840;7.258;2022-09-28T07:00:41;28.73;;;14.30;;
58446;SDS011;44240;51.840;7.258;2022-09-28T07:03:29;28.10;;;13.45;;
58446;SDS011;44240;51.840;7.258;2022-09-28T07:05:54;26.02;;;13.30;;
58446;SDS011;44240;51.840;7.258;2022-09-28T07:08:24;26.17;;;13.38;;
58446;SDS011;44240;51.840;7.258;2022-09-28T07:10:50;25.98;;;13.65;;
58446;SDS011;44240;51.840;7.258;2022-09-28T07:13:20;24.63;;;13.38;;
58446;SDS011;44240;51.840;7.258;2022-09-28T07:15:47;22.85;;;13.75;;
58446;SDS011;44240;51.840;7.258;2022-09-28T07:18:13;25.85;;;12.98;;
58446;SDS011;44240;51.840;7.258;2022-09-28T07:20:39;27.73;;;15.23;;
58446;SDS011;44240;51.840;7.258;2022-09-28T07:23:05;24.30;;;13.98;;
58446;SDS011;44240;51.840;7.258;2022-09-28T07:25:32;29.23;;;14.68;;
58446;SDS011;44240;51.840;7.258;2022-09-28T07:28:01;30.58;;;15.25;;
58446;SDS011;44240;51.840;7.258;2022-09-28T07:30:28;32.05;;;15.32;;
58446;SDS011;44240;51.840;7.258;2022-09-28T07:33:00;29.20;;;14.75;;
58446;SDS011;44240;51.840;7.258;2022-09-28T07:35:26;31.88;;;16.02;;
58446;SDS011;44240;51.840;7.258;2022-09-28T07:37:58;28.27;;;14.98;;
58446;SDS011;44240;51.840;7.258;2022-09-28T07:40:25;24.73;;;14.13;;
58446;SDS011;44240;51.840;7.258;2022-09-28T07:43:10;27.88;;;14.70;;
58446;SDS011;44240;51.840;7.258;2022-09-28T07:45:37;35.08;;;15.45;;
58446;SDS011;44240;51.840;7.258;2022-09-28T07:48:03;30.15;;;15.68;;
58446;SDS011;44240;51.840;7.258;2022-09-28T07:50:29;32.70;;;16.42;;
58446;SDS011;44240;51.840;7.258;2022-09-28T07:52:54;34.28;;;15.15;;
58446;SDS011;44240;51.840;7.258;2022-09-28T07:55:21;28.20;;;15.02;;
58446;SDS011;44240;51.840;7.258;2022-09-28T07:57:52;29.08;;;15.98;;
58446;SDS011;44240;51.840;7.258;2022-09-28T08:00:23;27.48;;;14.13;;
58446;SDS011;44240;51.840;7.258;2022-09-28T08:02:49;27.90;;;15.25;;
58446;SDS011;44240;51.840;7.258;2022-09-28T08:05:14;32.03;;;15.50;;
58446;SDS011;44240;51.840;7.258;2022-09-28T08:07:41;31.15;;;16.35;;
58446;SDS011;44240;51.840;7.258;2022-09-28T08:10:07;28.13;;;14.35;;
58446;SDS011;44240;51.840;7.258;2022-09-28T08:12:33;32.90;;;17.58;;
58446;SDS011;44240;51.840;7.258;2022-09-28T08:14:59;37.20;;;18.05;;
58446;SDS011;44240;51.840;7.258;2022-09-28T08:17:25;29.73;;;15.35;;
58446;SDS011;44240;51.840;7.258;2022-09-28T08:19:50;33.60;;;16.83;;
58446;SDS011;44240;51.840;7.258;2022-09-28T08:22:34;30.58;;;16.38;;
58446;SDS011;44240;51.840;7.258;2022-09-28T08:25:01;30.15;;;15.80;;
58446;SDS011;44240;51.840;7.258;2022-09-28T08:27:27;34.65;;;16.75;;
58446;SDS011;44240;51.840;7.258;2022-09-28T08:29:52;31.45;;;17.58;;
58446;SDS011;44240;51.840;7.258;2022-09-28T08:32:18;26.92;;;15.18;;
58446;SDS011;44240;51.840;7.258;2022-09-28T08:34:43;28.00;;;14.55;;
58446;SDS011;44240;51.840;7.258;2022-09-28T08:37:10;28.23;;;15.63;;
58446;SDS011;44240;51.840;7.258;2022-09-28T08:39:36;29.15;;;16.73;;
58446;SDS011;44240;51.840;7.258;2022-09-28T08:42:14;31.10;;;15.13;;
58446;SDS011;44240;51.840;7.258;2022-09-28T08:47:44;26.67;;;15.52;;
58446;SDS011;44240;51.840;7.258;2022-09-28T08:50:37;26.05;;;14.63;;
58446;SDS011;44240;51.840;7.258;2022-09-28T08:53:29;28.20;;;14.00;;
58446;SDS011;44240;51.840;7.258;2022-09-28T08:56:11;24.60;;;13.25;;
58446;SDS011;44240;51.840;7.258;2022-09-28T08:58:46;26.80;;;13.50;;
58446;SDS011;44240;51.840;7.258;2022-09-28T09:01:16;23.27;;;14.88;;
58446;SDS011;44240;51.840;7.258;2022-09-28T09:03:44;25.02;;;15.30;;
58446;SDS011;44240;51.840;7.258;2022-09-28T09:12:21;28.23;;;14.55;;
58446;SDS011;44240;51.840;7.258;2022-09-28T09:17:41;25.35;;;13.27;;
58446;SDS011;44240;51.840;7.258;2022-09-28T09:26:10;22.30;;;13.30;;
58446;SDS011;44240;51.840;7.258;2022-09-28T09:31:57;26.42;;;13.32;;
58446;SDS011;44240;51.840;7.258;2022-09-28T09:56:26;14.00;;;9.77;;
58446;SDS011;44240;51.840;7.258;2022-09-28T09:59:01;16.42;;;10.05;;
58446;SDS011;44240;51.840;7.258;2022-09-28T10:01:34;13.57;;;9.27;;
58446;SDS011;44240;51.840;7.258;2022-09-28T10:04:04;16.70;;;10.23;;
58446;SDS011;44240;51.840;7.258;2022-09-28T10:06:35;17.30;;;10.00;;
58446;SDS011;44240;51.840;7.258;2022-09-28T10:11:34;13.80;;;8.68;;
58446;SDS011;44240;51.840;7.258;2022-09-28T10:14:03;13.55;;;9.43;;
58446;SDS011;44240;51.840;7.258;2022-09-28T10:16:32;11.82;;;8.35;;
58446;SDS011;44240;51.840;7.258;2022-09-28T10:18:58;15.57;;;9.15;;
58446;SDS011;44240;51.840;7.258;2022-09-28T10:21:24;14.50;;;9.02;;
58446;SDS011;44240;51.840;7.258;2022-09-28T10:23:57;11.52;;;8.90;;
58446;SDS011;44240;51.840;7.258;2022-09-28T10:26:24;12.63;;;8.13;;
58446;SDS011;44240;51.840;7.258;2022-09-28T10:29:04;11.57;;;7.47;;
58446;SDS011;44240;51.840;7.258;2022-09-28T10:34:03;11.50;;;7.43;;
58446;SDS011;44240;51.840;7.258;2022-09-28T10:36:41;12.13;;;7.63;;
58446;SDS011;44240;51.840;7.258;2022-09-28T10:40:07;10.73;;;6.40;;
58446;SDS011;44240;51.840;7.258;2022-09-28T10:42:10;10.82;;;7.43;;
58446;SDS011;44240;51.840;7.258;2022-09-28T10:44:47;9.07;;;6.55;;
58446;SDS011;44240;51.840;7.258;2022-09-28T10:47:17;7.60;;;5.95;;
58446;SDS011;44240;51.840;7.258;2022-09-28T10:49:45;8.73;;;6.45;;
58446;SDS011;44240;51.840;7.258;2022-09-28T10:55:00;6.13;;;5.32;;
58446;SDS011;44240;51.840;7.258;2022-09-28T10:57:34;5.68;;;4.45;;
58446;SDS011;44240;51.840;7.258;2022-09-28T11:00:00;6.35;;;4.80;;
58446;SDS011;44240;51.840;7.258;2022-09-28T11:02:29;7.07;;;4.63;;
58446;SDS011;44240;51.840;7.258;2022-09-28T11:05:01;5.72;;;4.63;;
58446;SDS011;44240;51.840;7.258;2022-09-28T11:07:30;5.05;;;4.55;;
58446;SDS011;44240;51.840;7.258;2022-09-28T11:09:58;7.55;;;4.68;;
58446;SDS011;44240;51.840;7.258;2022-09-28T11:12:28;7.22;;;4.57;;
58446;SDS011;44240;51.840;7.258;2022-09-28T11:15:06;6.00;;;4.95;;
58446;SDS011;44240;51.840;7.258;2022-09-28T11:17:40;6.28;;;4.50;;
58446;SDS011;44240;51.840;7.258;2022-09-28T11:22:53;7.45;;;4.60;;
58446;SDS011;44240;51.840;7.258;2022-09-28T11:25:20;5.78;;;3.90;;
58446;SDS011;44240;51.840;7.258;2022-09-28T11:30:20;6.95;;;4.07;;
58446;SDS011;44240;51.840;7.258;2022-09-28T11:33:10;4.72;;;3.72;;
58446;SDS011;44240;51.840;7.258;2022-09-28T11:35:55;7.18;;;3.70;;
58446;SDS011;44240;51.840;7.258;2022-09-28T11:44:12;3.42;;;2.90;;
58446;SDS011;44240;51.840;7.258;2022-09-28T11:46:54;3.70;;;3.35;;
58446;SDS011;44240;51.840;7.258;2022-09-28T11:49:42;3.78;;;3.15;;
58446;SDS011;44240;51.840;7.258;2022-09-28T11:52:21;3.85;;;3.30;;
58446;SDS011;44240;51.840;7.258;2022-09-28T11:57:47;3.92;;;3.20;;
58446;SDS011;44240;51.840;7.258;2022-09-28T12:00:20;4.47;;;3.35;;
58446;SDS011;44240;51.840;7.258;2022-09-28T12:03:05;4.40;;;3.53;;
58446;SDS011;44240;51.840;7.258;2022-09-28T12:05:46;3.03;;;2.70;;
58446;SDS011;44240;51.840;7.258;2022-09-28T12:13:44;2.80;;;2.55;;
58446;SDS011;44240;51.840;7.258;2022-09-28T12:16:32;2.92;;;2.63;;
58446;SDS011;44240;51.840;7.258;2022-09-28T12:24:41;3.53;;;3.22;;
58446;SDS011;44240;51.840;7.258;2022-09-28T12:27:26;3.10;;;2.80;;
58446;SDS011;44240;51.840;7.258;2022-09-28T12:30:12;4.13;;;3.13;;
58446;SDS011;44240;51.840;7.258;2022-09-28T12:33:00;3.85;;;2.60;;
58446;SDS011;44240;51.840;7.258;2022-09-28T12:35:43;2.83;;;2.63;;
58446;SDS011;44240;51.840;7.258;2022-09-28T12:38:27;4.10;;;2.50;;
58446;SDS011;44240;51.840;7.258;2022-09-28T12:49:23;3.45;;;2.60;;
58446;SDS011;44240;51.840;7.258;2022-09-28T12:52:03;2.92;;;2.63;;
58446;SDS011;44240;51.840;7.258;2022-09-28T12:54:59;2.85;;;2.22;;
58446;SDS011;44240;51.840;7.258;2022-09-28T12:57:43;2.53;;;2.33;;
58446;SDS011;44240;51.840;7.258;2022-09-28T13:00:18;3.08;;;2.78;;
58446;SDS011;44240;51.840;7.258;2022-09-28T13:11:10;2.85;;;2.58;;
58446;SDS011;44240;51.840;7.258;2022-09-28T13:21:38;2.50;;;2.30;;
58446;SDS011;44240;51.840;7.258;2022-09-28T13:24:11;3.15;;;2.33;;
58446;SDS011;44240;51.840;7.258;2022-09-28T13:26:40;2.53;;;2.40;;
58446;SDS011;44240;51.840;7.258;2022-09-28T13:29:10;2.67;;;2.47;;
58446;SDS011;44240;51.840;7.258;2022-09-28T13:31:48;3.10;;;2.80;;
58446;SDS011;44240;51.840;7.258;2022-09-28T13:34:19;4.20;;;2.20;;
58446;SDS011;44240;51.840;7.258;2022-09-28T13:42:01;3.72;;;2.20;;
58446;SDS011;44240;51.840;7.258;2022-09-28T13:44:34;7.70;;;2.88;;
58446;SDS011;44240;51.840;7.258;2022-09-28T13:47:21;2.10;;;1.90;;
58446;SDS011;44240;51.840;7.258;2022-09-28T13:58:28;3.45;;;1.85;;
58446;SDS011;44240;51.840;7.258;2022-09-28T14:01:10;2.25;;;2.08;;
58446;SDS011;44240;51.840;7.258;2022-09-28T14:03:41;1.60;;;1.50;;
58446;SDS011;44240;51.840;7.258;2022-09-28T14:06:27;1.52;;;1.42;;
58446;SDS011;44240;51.840;7.258;2022-09-28T14:11:42;1.80;;;1.52;;
58446;SDS011;44240;51.840;7.258;2022-09-28T14:16:36;1.98;;;1.88;;
58446;SDS011;44240;51.840;7.258;2022-09-28T14:19:19;2.95;;;1.60;;
58446;SDS011;44240;51.840;7.258;2022-09-28T14:24:33;1.57;;;1.43;;
58446;SDS011;44240;51.840;7.258;2022-09-28T14:32:35;1.15;;;1.10;;
58446;SDS011;44240;51.840;7.258;2022-09-28T14:35:13;1.58;;;1.40;;
58446;SDS011;44240;51.840;7.258;2022-09-28T14:38:05;3.20;;;1.63;;
58446;SDS011;44240;51.840;7.258;2022-09-28T14:41:05;1.50;;;1.40;;
58446;SDS011;44240;51.840;7.258;2022-09-28T14:48:52;1.25;;;1.15;;
58446;SDS011;44240;51.840;7.258;2022-09-28T14:53:51;1.40;;;1.30;;
58446;SDS011;44240;51.840;7.258;2022-09-28T14:56:17;1.52;;;1.10;;
58446;SDS011;44240;51.840;7.258;2022-09-28T14:58:43;1.40;;;1.30;;
58446;SDS011;44240;51.840;7.258;2022-09-28T15:01:13;1.70;;;1.02;;
58446;SDS011;44240;51.840;7.258;2022-09-28T15:03:44;1.05;;;1.00;;
58446;SDS011;44240;51.840;7.258;2022-09-28T15:06:14;0.90;;;0.90;;
58446;SDS011;44240;51.840;7.258;2022-09-28T15:08:45;2.83;;;0.93;;
58446;SDS011;44240;51.840;7.258;2022-09-28T15:11:12;1.55;;;1.45;;
58446;SDS011;44240;51.840;7.258;2022-09-28T15:13:45;0.90;;;0.90;;
58446;SDS011;44240;51.840;7.258;2022-09-28T15:16:14;2.78;;;1.17;;
58446;SDS011;44240;51.840;7.258;2022-09-28T15:21:35;1.58;;;1.10;;
58446;SDS011;44240;51.840;7.258;2022-09-28T15:24:17;2.28;;;1.08;;
58446;SDS011;44240;51.840;7.258;2022-09-28T15:27:02;1.33;;;1.10;;
58446;SDS011;44240;51.840;7.258;2022-09-28T15:29:37;1.88;;;0.90;;
58446;SDS011;44240;51.840;7.258;2022-09-28T15:32:04;4.75;;;1.10;;
58446;SDS011;44240;51.840;7.258;2022-09-28T15:34:34;1.45;;;0.95;;
58446;SDS011;44240;51.840;7.258;2022-09-28T15:37:17;1.05;;;0.98;;
58446;SDS011;44240;51.840;7.258;2022-09-28T15:39:46;1.05;;;0.93;;
58446;SDS011;44240;51.840;7.258;2022-09-28T15:42:13;1.70;;;1.50;;
58446;SDS011;44240;51.840;7.258;2022-09-28T15:44:40;1.58;;;1.10;;
58446;SDS011;44240;51.840;7.258;2022-09-28T15:47:10;3.97;;;1.40;;
58446;SDS011;44240;51.840;7.258;2022-09-28T15:49:42;1.23;;;1.20;;
58446;SDS011;44240;51.840;7.258;2022-09-28T15:52:29;3.13;;;1.33;;
58446;SDS011;44240;51.840;7.258;2022-09-28T15:55:00;1.60;;;1.50;;
58446;SDS011;44240;51.840;7.258;2022-09-28T15:58:06;2.25;;;1.45;;
58446;SDS011;44240;51.840;7.258;2022-09-28T16:00:46;1.85;;;1.40;;
58446;SDS011;44240;51.840;7.258;2022-09-28T16:03:35;1.35;;;1.25;;
58446;SDS011;44240;51.840;7.258;2022-09-28T16:16:35;4.13;;;1.30;;
58446;SDS011;44240;51.840;7.258;2022-09-28T16:19:11;2.65;;;2.45;;
58446;SDS011;44240;51.840;7.258;2022-09-28T16:21:47;2.75;;;2.55;;
58446;SDS011;44240;51.840;7.258;2022-09-28T16:24:22;2.45;;;2.10;;
58446;SDS011;44240;51.840;7.258;2022-09-28T16:29:33;2.28;;;2.08;;
58446;SDS011;44240;51.840;7.258;2022-09-28T16:37:38;2.25;;;2.15;;
58446;SDS011;44240;51.840;7.258;2022-09-28T16:40:06;4.07;;;1.88;;
58446;SDS011;44240;51.840;7.258;2022-09-28T16:42:33;4.07;;;2.03;;
58446;SDS011;44240;51.840;7.258;2022-09-28T16:44:59;2.45;;;2.22;;
58446;SDS011;44240;51.840;7.258;2022-09-28T16:47:28;2.55;;;2.30;;
58446;SDS011;44240;51.840;7.258;2022-09-28T16:49:57;2.45;;;2.08;;
58446;SDS011;44240;51.840;7.258;2022-09-28T16:52:24;2.35;;;2.15;;
58446;SDS011;44240;51.840;7.258;2022-09-28T16:55:11;2.88;;;2.50;;
58446;SDS011;44240;51.840;7.258;2022-09-28T16:57:40;2.97;;;2.47;;
58446;SDS011;44240;51.840;7.258;2022-09-28T17:00:08;3.80;;;2.45;;
58446;SDS011;44240;51.840;7.258;2022-09-28T17:02:39;2.13;;;2.03;;
58446;SDS011;44240;51.840;7.258;2022-09-28T17:05:08;3.40;;;1.80;;
58446;SDS011;44240;51.840;7.258;2022-09-28T17:07:34;1.70;;;1.60;;
58446;SDS011;44240;51.840;7.258;2022-09-28T17:09:59;2.90;;;1.95;;
58446;SDS011;44240;51.840;7.258;2022-09-28T17:12:25;1.95;;;1.48;;
58446;SDS011;44240;51.840;7.258;2022-09-28T17:14:53;1.67;;;1.58;;
58446;SDS011;44240;51.840;7.258;2022-09-28T17:17:19;6.15;;;2.30;;
58446;SDS011;44240;51.840;7.258;2022-09-28T17:19:45;1.70;;;1.60;;
58446;SDS011;44240;51.840;7.258;2022-09-28T17:22:10;6.72;;;1.70;;
58446;SDS011;44240;51.840;7.258;2022-09-28T17:24:38;5.00;;;1.77;;
58446;SDS011;44240;51.840;7.258;2022-09-28T17:27:03;1.55;;;1.45;;
58446;SDS011;44240;51.840;7.258;2022-09-28T17:29:30;3.67;;;1.85;;
58446;SDS011;44240;51.840;7.258;2022-09-28T17:31:56;2.00;;;1.90;;
58446;SDS011;44240;51.840;7.258;2022-09-28T17:34:22;1.98;;;1.88;;
58446;SDS011;44240;51.840;7.258;2022-09-28T17:36:47;1.75;;;1.65;;
58446;SDS011;44240;51.840;7.258;2022-09-28T17:39:14;2.53;;;1.85;;
58446;SDS011;44240;51.840;7.258;2022-09-28T17:41:42;1.90;;;1.80;;
58446;SDS011;44240;51.840;7.258;2022-09-28T17:44:08;2.30;;;2.20;;
58446;SDS011;44240;51.840;7.258;2022-09-28T17:46:34;2.75;;;2.55;;
58446;SDS011;44240;51.840;7.258;2022-09-28T17:49:04;2.17;;;1.90;;
58446;SDS011;44240;51.840;7.258;2022-09-28T17:51:31;2.03;;;1.83;;
58446;SDS011;44240;51.840;7.258;2022-09-28T17:53:59;3.50;;;2.15;;
58446;SDS011;44240;51.840;7.258;2022-09-28T17:56:25;2.30;;;2.13;;
58446;SDS011;44240;51.840;7.258;2022-09-28T17:58:52;2.83;;;2.45;;
58446;SDS011;44240;51.840;7.258;2022-09-28T18:01:17;1.90;;;1.75;;
58446;SDS011;44240;51.840;7.258;2022-09-28T18:03:43;3.08;;;1.90;;
58446;SDS011;44240;51.840;7.258;2022-09-28T18:06:10;1.27;;;1.10;;